Main page
METAR-TAF:

METAR-TAF

Airports :

Cazaux Air Base

Cazaux, France

latitude: 44-32N, longitude: 001-08W, elevation: 25 m

Current weather observation

The report was made 13 minutes ago, at 21:00 UTC
Wind 7 kt from the North/Northeast
Temperature 2°C
Humidity 80%
Pressure 1035 hPa
Visibility 10 km or more

METAR: LFBC 212100Z AUTO 02007KT 9999 // NSC 02/M01 Q1035

Time: 22:13 (21:13 UTC)

Forecast

The report was made 7 hours and 13 minutes ago, at 14:00 UTC
Forecast valid from 21 at 15 UTC to 22 at 15 UTC
Wind 10 kt from the East/Northeast
Visibility 10 km or more
Few clouds at a height of 3000 ft
Temporary
from 22 at 04 UTC to 22 at 07 UTC
Visibility: 3000 m
mist

TAF: LFBC 211400Z 2115/2215 06010KT 9999 FEW030 TEMPO 2204/2207 3000 BR

Weather observations and forecasts of more than 4000 airports (METAR and TAF reports).

The available stations are represented by yellow and red dots on the map.

Hover mouse over dot to see the name of the station.

Then click to see weather observations and forecasts.

To change the map : click on the green buttons with a black cross to zoom in, on the green button with a dash to zoom out, or on the green arrows for adjacent maps.


METAR-TAF: